Time;durP1;ratioP1;P1;durP2;ratioP2;P2;SDS_P1;SDS_P2;PMS_P1;PMS_P2;Temp;Humidity;BMP_temperature;BMP_pressure;BME280_temperature;BME280_humidity;BME280_pressure;Samples;Min_cycle;Max_cycle;Signal;HPM_P1;HPM_P2
2022/04/19 00:00:38;;;;;;;5.82;3.10;;;7.80;99.90;;;;;;4957877;28;20028;-78
2022/04/19 00:03:06;;;;;;;6.32;2.80;;;7.80;99.90;;;;;;4955460;29;20019;-76
2022/04/19 00:05:33;;;;;;;5.60;3.03;;;7.80;99.90;;;;;;4947050;29;20023;-77
2022/04/19 00:08:03;;;;;;;6.43;3.63;;;7.70;99.90;;;;;;4929731;29;20031;-77
2022/04/19 00:10:29;;;;;;;6.13;4.18;;;7.70;99.90;;;;;;4929157;29;20102;-75
2022/04/19 00:12:56;;;;;;;4.93;3.10;;;7.70;99.90;;;;;;4954014;29;20417;-75
2022/04/19 00:15:22;;;;;;;4.90;3.58;;;7.70;99.90;;;;;;4951322;28;20390;-75
2022/04/19 00:17:49;;;;;;;6.45;3.20;;;7.70;99.90;;;;;;4956225;28;20074;-73
2022/04/19 00:20:15;;;;;;;6.40;3.95;;;7.60;99.90;;;;;;4945300;28;20449;-74
2022/04/19 00:22:41;;;;;;;4.28;3.88;;;7.80;99.90;;;;;;4947760;29;20122;-74
2022/04/19 00:25:07;;;;;;;3.65;2.88;;;7.80;99.90;;;;;;4952802;28;20050;-75
2022/04/19 00:27:34;;;;;;;5.78;3.35;;;7.80;99.90;;;;;;4940049;29;20512;-75
2022/04/19 00:30:00;;;;;;;8.95;4.00;;;7.80;99.90;;;;;;4953792;28;20481;-75
2022/04/19 00:32:26;;;;;;;5.32;3.58;;;7.70;99.90;;;;;;4936797;29;20645;-75
2022/04/19 00:34:52;;;;;;;7.20;4.00;;;7.60;99.90;;;;;;4948943;29;20078;-75
2022/04/19 00:37:21;;;;;;;4.43;3.70;;;7.50;99.90;;;;;;4954570;29;20078;-76
2022/04/19 00:39:47;;;;;;;5.70;3.53;;;7.40;99.90;;;;;;4929725;29;20023;-75
2022/04/19 00:42:12;;;;;;;6.05;3.88;;;7.40;99.90;;;;;;4944117;29;20038;-76
2022/04/19 00:44:39;;;;;;;8.02;3.72;;;7.60;99.90;;;;;;4949130;29;20109;-75
2022/04/19 00:47:09;;;;;;;7.05;5.40;;;7.50;99.90;;;;;;4929202;29;20057;-75
2022/04/19 00:49:40;;;;;;;5.17;3.30;;;7.50;99.90;;;;;;4946402;29;20021;-75
2022/04/19 00:52:07;;;;;;;5.18;3.47;;;7.50;99.90;;;;;;4945096;29;20042;-75
2022/04/19 00:54:33;;;;;;;6.93;2.92;;;7.50;99.90;;;;;;4949864;29;20030;-76
2022/04/19 00:56:59;;;;;;;6.53;3.50;;;7.40;99.90;;;;;;4929372;29;20028;-77
2022/04/19 00:59:25;;;;;;;7.55;3.65;;;7.30;99.90;;;;;;4946201;29;20020;-76
2022/04/19 01:01:51;;;;;;;4.13;3.13;;;7.30;99.90;;;;;;4929894;29;20023;-75
2022/04/19 01:04:17;;;;;;;11.05;3.53;;;7.30;99.90;;;;;;4953603;28;20019;-76
2022/04/19 01:06:42;;;;;;;5.43;3.40;;;7.30;99.90;;;;;;4947597;29;20062;-75
2022/04/19 01:09:08;;;;;;;6.60;2.90;;;7.20;99.90;;;;;;4945782;29;20063;-75
2022/04/19 01:14:20;;;;;;;5.25;3.53;;;7.20;99.90;;;;;;4956533;28;20525;-75
2022/04/19 01:16:45;;;;;;;4.57;3.08;;;7.10;99.90;;;;;;4951732;28;20050;-75
2022/04/19 01:19:16;;;;;;;5.82;3.30;;;7.00;99.90;;;;;;4932952;29;20038;-74
2022/04/19 01:21:54;;;;;;;13.70;3.10;;;7.00;99.90;;;;;;4942366;29;20068;-75
2022/04/19 01:24:21;;;;;;;6.05;3.58;;;6.90;99.90;;;;;;4953093;29;20054;-76
2022/04/19 01:26:48;;;;;;;6.45;4.90;;;6.90;99.90;;;;;;4946915;29;20038;-75
2022/04/19 01:29:15;;;;;;;4.32;3.42;;;6.90;99.90;;;;;;4952243;29;20035;-75
2022/04/19 01:31:42;;;;;;;5.75;4.15;;;6.90;99.90;;;;;;4930230;29;20078;-75
2022/04/19 01:34:08;;;;;;;5.18;3.47;;;6.90;99.90;;;;;;4932501;29;20113;-76
2022/04/19 01:36:35;;;;;;;6.38;4.13;;;6.80;99.90;;;;;;4929516;29;20023;-75
2022/04/19 01:39:11;;;;;;;5.20;3.97;;;6.80;99.90;;;;;;4927657;29;20494;-75
2022/04/19 01:41:38;;;;;;;4.43;3.45;;;6.80;99.90;;;;;;4945793;29;20059;-76
2022/04/19 01:44:05;;;;;;;5.90;4.00;;;6.70;99.90;;;;;;4958825;28;20023;-75
2022/04/19 01:46:31;;;;;;;5.93;4.45;;;6.70;99.90;;;;;;4941779;29;20026;-76
2022/04/19 01:48:57;;;;;;;10.90;3.58;;;6.60;99.90;;;;;;4952808;29;20030;-75
2022/04/19 01:51:24;;;;;;;6.22;3.63;;;6.60;99.90;;;;;;4946198;29;20031;-75
2022/04/19 01:53:50;;;;;;;4.25;3.40;;;6.60;99.90;;;;;;4945089;29;20561;-75
2022/04/19 01:56:17;;;;;;;6.03;4.07;;;6.60;99.90;;;;;;4946595;29;20031;-75
2022/04/19 01:58:42;;;;;;;4.57;3.70;;;6.50;99.90;;;;;;4945066;29;20074;-75
2022/04/19 02:01:08;;;;;;;5.32;3.60;;;6.40;99.90;;;;;;4947122;29;20437;-75
2022/04/19 02:03:34;;;;;;;8.32;4.35;;;6.50;99.90;;;;;;4945208;29;20019;-75
2022/04/19 02:06:01;;;;;;;6.97;3.83;;;6.50;99.90;;;;;;4944683;29;20043;-74
2022/04/19 02:08:27;;;;;;;6.80;4.13;;;6.50;99.90;;;;;;4946169;29;20086;-76
2022/04/19 02:10:52;;;;;;;6.68;4.05;;;6.50;99.90;;;;;;4957659;28;20058;-75
2022/04/19 02:13:19;;;;;;;5.22;3.70;;;6.50;99.90;;;;;;4949284;28;20478;-75
2022/04/19 02:15:46;;;;;;;4.68;3.72;;;6.40;99.90;;;;;;4952693;28;20027;-75
2022/04/19 02:18:12;;;;;;;4.60;3.53;;;6.40;99.90;;;;;;4942929;29;20478;-77
2022/04/19 02:20:37;;;;;;;4.90;3.72;;;6.30;99.90;;;;;;4947400;29;20027;-75
2022/04/19 02:23:03;;;;;;;6.05;3.80;;;6.30;99.90;;;;;;4952538;29;20031;-76
2022/04/19 02:25:30;;;;;;;5.32;3.72;;;6.20;99.90;;;;;;4930863;29;20386;-75
2022/04/19 02:27:55;;;;;;;10.07;4.45;;;6.10;99.90;;;;;;4946664;29;20039;-75
2022/04/19 02:30:21;;;;;;;4.18;3.58;;;6.10;99.90;;;;;;4935291;29;20019;-75
2022/04/19 02:32:48;;;;;;;4.65;3.67;;;6.20;99.90;;;;;;4946092;29;20050;-75
2022/04/19 02:35:17;;;;;;;4.75;3.65;;;6.20;99.90;;;;;;4944591;29;20024;-74
2022/04/19 02:37:53;;;;;;;4.25;3.67;;;6.10;99.90;;;;;;4946329;29;20023;-75
2022/04/19 02:40:21;;;;;;;4.15;3.70;;;6.20;99.90;;;;;;4950552;29;20516;-75
2022/04/19 02:42:48;;;;;;;3.92;3.53;;;6.20;99.90;;;;;;4946022;29;20551;-74
2022/04/19 02:45:14;;;;;;;4.32;3.53;;;6.20;99.90;;;;;;4948952;29;20027;-75
2022/04/19 02:47:41;;;;;;;10.18;3.72;;;6.20;99.90;;;;;;4941414;29;20474;-74
2022/04/19 02:50:07;;;;;;;5.88;4.15;;;6.20;99.90;;;;;;4949411;29;20110;-75
2022/04/19 02:52:33;;;;;;;5.43;4.03;;;6.10;99.90;;;;;;4923913;29;20766;-75
2022/04/19 02:54:58;;;;;;;5.43;3.53;;;6.10;99.90;;;;;;4948183;29;20035;-75
2022/04/19 02:57:24;;;;;;;7.43;4.47;;;6.00;99.90;;;;;;4948945;29;20024;-75
2022/04/19 02:59:50;;;;;;;3.38;3.08;;;5.90;99.90;;;;;;4950004;29;20098;-75
2022/04/19 03:02:17;;;;;;;5.05;3.42;;;6.00;99.90;;;;;;4927095;29;20434;-76
2022/04/19 03:04:43;;;;;;;5.75;3.80;;;6.00;99.90;;;;;;4944175;29;20382;-75
2022/04/19 03:07:09;;;;;;;4.22;3.75;;;5.90;99.90;;;;;;4945528;29;20024;-75
2022/04/19 03:09:34;;;;;;;3.65;3.35;;;6.00;99.90;;;;;;4954653;28;20046;-75
2022/04/19 03:12:01;;;;;;;7.03;4.20;;;5.90;99.90;;;;;;4944122;29;20023;-76
2022/04/19 03:14:27;;;;;;;5.45;3.38;;;5.80;99.90;;;;;;4952105;28;20039;-75
2022/04/19 03:16:53;;;;;;;8.93;4.68;;;5.80;99.90;;;;;;4945867;29;20407;-76
2022/04/19 03:19:19;;;;;;;3.83;3.53;;;5.80;99.90;;;;;;4949222;29;20023;-75
2022/04/19 03:21:44;;;;;;;8.52;4.25;;;5.90;80.20;;;;;;4947254;29;20027;-75
2022/04/19 03:29:38;;;;;;;5.22;3.70;;;5.80;99.90;;;;;;4960562;28;20055;-75
2022/04/19 03:32:05;;;;;;;7.85;4.80;;;5.80;99.90;;;;;;4962214;28;20031;-75
2022/04/19 03:34:30;;;;;;;4.28;3.70;;;5.70;99.90;;;;;;4951100;29;20062;-75
2022/04/19 03:36:56;;;;;;;6.72;3.95;;;5.70;99.90;;;;;;4945867;29;20472;-76
2022/04/19 03:39:21;;;;;;;5.43;3.63;;;5.70;99.90;;;;;;4935005;29;20020;-74
2022/04/19 03:41:47;;;;;;;7.95;4.25;;;5.70;99.90;;;;;;4949288;29;20027;-76
2022/04/19 03:44:12;;;;;;;4.18;3.70;;;5.60;99.90;;;;;;4928226;29;20019;-76
2022/04/19 03:49:24;;;;;;;4.50;3.78;;;5.50;99.90;;;;;;4951944;29;20102;-76
2022/04/19 03:51:50;;;;;;;8.95;4.05;;;5.50;99.90;;;;;;4952500;29;20394;-76
2022/04/19 03:54:15;;;;;;;4.75;4.05;;;5.50;99.90;;;;;;4944807;29;20039;-75
2022/04/19 03:56:41;;;;;;;10.20;4.30;;;5.40;99.90;;;;;;4951134;29;20038;-75
2022/04/19 03:59:09;;;;;;;5.90;3.80;;;5.50;99.90;;;;;;4929979;29;20034;-75
2022/04/19 04:01:37;;;;;;;7.50;4.85;;;5.50;99.90;;;;;;4937859;29;20027;-75
2022/04/19 04:04:02;;;;;;;4.40;3.83;;;5.50;99.90;;;;;;4948087;29;20098;-75
2022/04/19 04:06:28;;;;;;;6.03;4.40;;;5.50;99.90;;;;;;4937521;29;20093;-76
2022/04/19 04:08:53;;;;;;;5.43;3.60;;;5.50;99.90;;;;;;4954894;28;20031;-75
2022/04/19 04:11:20;;;;;;;6.00;4.45;;;5.40;99.90;;;;;;4947968;28;20034;-75
2022/04/19 04:13:45;;;;;;;6.60;3.90;;;5.40;99.90;;;;;;4954584;29;20462;-76
2022/04/19 04:16:11;;;;;;;6.45;4.05;;;5.40;99.90;;;;;;4946707;29;20055;-76
2022/04/19 04:18:39;;;;;;;6.20;4.57;;;5.40;99.90;;;;;;4946887;29;20023;-75
2022/04/19 04:21:05;;;;;;;9.50;4.95;;;5.40;99.90;;;;;;4950668;28;20046;-75
2022/04/19 04:23:33;;;;;;;7.05;4.72;;;5.40;99.90;;;;;;4948550;29;20019;-75
2022/04/19 04:25:59;;;;;;;5.78;3.70;;;5.40;99.90;;;;;;4946800;29;20026;-75
2022/04/19 04:28:25;;;;;;;5.53;4.45;;;5.40;99.90;;;;;;4954587;29;20019;-75
2022/04/19 04:30:50;;;;;;;5.10;4.57;;;5.40;99.90;;;;;;4948619;29;20035;-75
2022/04/19 04:33:16;;;;;;;8.93;3.65;;;5.40;99.90;;;;;;4963113;28;20501;-76
2022/04/19 04:35:42;;;;;;;7.80;4.38;;;5.50;99.90;;;;;;4932485;29;20019;-75
2022/04/19 04:38:07;;;;;;;4.45;4.03;;;5.50;99.90;;;;;;4935502;29;20027;-75
2022/04/19 04:40:33;;;;;;;11.52;5.10;;;5.60;99.90;;;;;;4924461;29;20019;-75
2022/04/19 04:42:59;;;;;;;5.80;4.28;;;5.60;99.90;;;;;;4949428;29;20026;-76
2022/04/19 04:45:25;;;;;;;7.20;4.68;;;5.80;99.90;;;;;;4945173;29;20021;-76
2022/04/19 04:50:35;;;;;;;6.65;4.65;;;6.20;99.90;;;;;;4949052;29;20030;-75
2022/04/19 04:53:00;;;;;;;6.50;4.05;;;6.30;99.90;;;;;;4951822;29;20110;-76
2022/04/19 04:55:26;;;;;;;9.18;3.75;;;6.50;99.90;;;;;;4947624;29;20019;-75
2022/04/19 04:57:56;;;;;;;8.82;3.78;;;6.80;99.90;;;;;;4945577;29;20058;-76
2022/04/19 05:00:22;;;;;;;7.32;4.13;;;7.10;99.90;;;;;;4946362;29;20037;-76
2022/04/19 05:02:48;;;;;;;10.82;4.55;;;7.10;99.90;;;;;;4945798;29;20054;-75
2022/04/19 05:05:13;;;;;;;9.93;4.57;;;7.00;99.90;;;;;;4929264;29;20023;-75
2022/04/19 05:07:39;;;;;;;9.40;3.70;;;7.10;99.90;;;;;;4942340;29;20027;-75
2022/04/19 05:10:06;;;;;;;7.03;5.20;;;7.40;99.90;;;;;;4959928;28;20148;-75
2022/04/19 05:12:31;;;;;;;9.25;4.05;;;7.80;99.90;;;;;;4952644;28;20042;-74
2022/04/19 05:14:57;;;;;;;7.00;3.72;;;8.30;99.90;;;;;;4953687;29;20027;-74
2022/04/19 05:17:23;;;;;;;12.45;4.50;;;8.90;99.90;;;;;;4943312;29;20606;-75
2022/04/19 05:19:49;;;;;;;7.13;4.38;;;9.10;99.90;;;;;;4953485;29;20481;-75
2022/04/19 05:22:14;;;;;;;6.00;3.92;;;9.70;99.90;;;;;;4945338;29;20036;-76
2022/04/19 05:24:40;;;;;;;5.03;3.88;;;9.70;99.90;;;;;;4951771;29;20026;-75
2022/04/19 05:27:05;;;;;;;8.20;4.22;;;9.40;99.90;;;;;;4935925;29;20609;-75
2022/04/19 05:29:31;;;;;;;8.90;4.00;;;9.30;99.90;;;;;;4948858;29;20015;-75
2022/04/19 05:31:57;;;;;;;8.90;3.90;;;9.30;99.90;;;;;;4948668;29;20055;-74
2022/04/19 05:34:22;;;;;;;8.10;4.57;;;9.20;99.90;;;;;;4942194;29;20058;-74
2022/04/19 05:36:48;;;;;;;5.90;4.60;;;8.50;99.90;;;;;;4943247;29;20024;-75
2022/04/19 05:39:14;;;;;;;7.75;3.75;;;8.60;99.90;;;;;;4951019;29;20027;-75
2022/04/19 05:41:40;;;;;;;6.00;3.47;;;8.90;99.90;;;;;;4947547;29;20470;-75
2022/04/19 05:44:06;;;;;;;4.20;3.55;;;9.20;99.90;;;;;;4944110;29;20047;-76
2022/04/19 05:46:32;;;;;;;5.93;3.28;;;9.80;99.90;;;;;;4944269;29;20058;-76
2022/04/19 05:48:57;;;;;;;7.55;4.18;;;10.60;99.90;;;;;;4953135;29;20055;-76
2022/04/19 05:51:23;;;;;;;7.25;3.53;;;11.00;99.90;;;;;;4929619;29;20074;-76
2022/04/19 05:53:48;;;;;;;7.18;3.42;;;11.10;99.80;;;;;;4945374;29;20031;-75
2022/04/19 05:56:14;;;;;;;5.75;3.67;;;11.40;98.80;;;;;;4944922;29;20095;-76
2022/04/19 05:58:39;;;;;;;6.35;3.50;;;11.50;98.60;;;;;;4928900;29;20078;-75
2022/04/19 06:01:06;;;;;;;6.43;3.00;;;11.20;98.30;;;;;;4961065;28;20035;-74
2022/04/19 06:06:15;;;;;;;3.95;3.30;;;10.70;99.30;;;;;;4944847;29;20090;-75
2022/04/19 06:08:42;;;;;;;4.20;3.42;;;10.40;99.60;;;;;;4952892;28;20401;-76
2022/04/19 06:11:11;;;;;;;4.13;3.13;;;10.10;99.90;;;;;;4933549;29;20091;-75
2022/04/19 06:13:36;;;;;;;8.15;4.00;;;9.90;99.90;;;;;;4941763;29;20028;-75
2022/04/19 06:16:02;;;;;;;5.45;3.70;;;9.40;99.90;;;;;;4949071;29;20034;-75
2022/04/19 06:18:28;;;;;;;6.18;3.88;;;9.50;99.90;;;;;;4941347;29;20028;-76
2022/04/19 06:20:54;;;;;;;8.02;3.90;;;9.60;99.90;;;;;;4948078;29;20027;-76
2022/04/19 06:23:20;;;;;;;8.80;3.67;;;9.70;99.90;;;;;;4949788;28;20398;-75
2022/04/19 06:25:46;;;;;;;7.07;4.90;;;9.50;99.90;;;;;;4941394;29;20016;-77
2022/04/19 06:28:11;;;;;;;5.15;3.85;;;9.50;99.90;;;;;;4950826;29;20027;-75
2022/04/19 06:30:37;;;;;;;6.43;4.28;;;9.70;99.90;;;;;;4945413;29;20402;-75
2022/04/19 06:33:03;;;;;;;4.97;4.15;;;9.50;99.90;;;;;;4926469;29;20081;-75
2022/04/19 06:35:29;;;;;;;9.18;4.32;;;9.80;99.90;;;;;;4941101;29;20427;-75
2022/04/19 06:37:54;;;;;;;4.82;4.00;;;9.80;99.90;;;;;;4951208;29;20034;-75
2022/04/19 06:40:20;;;;;;;4.70;3.97;;;10.10;99.90;;;;;;4941686;29;20032;-76
2022/04/19 06:42:45;;;;;;;6.40;4.13;;;10.40;99.90;;;;;;4949673;29;20478;-75
2022/04/19 06:45:11;;;;;;;7.30;3.35;;;10.60;99.90;;;;;;4944470;29;20406;-74
2022/04/19 06:47:37;;;;;;;6.15;4.20;;;10.50;99.90;;;;;;4944560;29;20054;-75
2022/04/19 06:50:03;;;;;;;4.85;4.35;;;10.60;99.90;;;;;;4946431;29;20031;-75
2022/04/19 06:52:29;;;;;;;5.22;3.80;;;10.70;99.90;;;;;;4945147;29;20110;-75
2022/04/19 06:54:55;;;;;;;5.97;4.10;;;10.60;99.90;;;;;;4944335;29;20106;-75
2022/04/19 06:57:20;;;;;;;14.65;6.18;;;10.80;99.90;;;;;;4944734;29;20454;-76
2022/04/19 06:59:46;;;;;;;5.95;4.68;;;10.90;99.80;;;;;;4958357;28;20023;-76
2022/04/19 07:02:12;;;;;;;5.90;4.50;;;10.90;99.70;;;;;;4945803;29;20032;-75
2022/04/19 07:04:39;;;;;;;11.40;5.13;;;11.00;99.90;;;;;;4949938;29;20028;-75
2022/04/19 07:07:06;;;;;;;7.00;4.20;;;11.20;99.50;;;;;;4947162;29;20019;-75
2022/04/19 07:09:31;;;;;;;6.03;4.93;;;11.20;99.60;;;;;;4958063;28;20114;-75
2022/04/19 07:11:57;;;;;;;8.55;4.22;;;11.40;99.20;;;;;;4949993;28;20118;-76
2022/04/19 07:14:23;;;;;;;7.07;4.05;;;11.40;99.10;;;;;;4935553;29;20454;-74
2022/04/19 07:16:48;;;;;;;6.90;4.25;;;11.20;99.40;;;;;;4950526;28;20066;-74
2022/04/19 07:19:14;;;;;;;6.63;4.55;;;11.40;99.20;;;;;;4955543;28;20531;-75
2022/04/19 07:26:37;;;;;;;6.70;4.38;;;11.60;99.40;;;;;;4958704;28;20059;-75
2022/04/19 07:27:12;;;;;;;11.60;5.10;;;11.80;98.80;;;;;;4959921;28;20470;-75
2022/04/19 07:29:38;;;;;;;5.70;4.60;;;11.90;98.80;;;;;;4936444;29;20051;-75
2022/04/19 07:32:04;;;;;;;4.80;4.28;;;12.00;98.60;;;;;;4938281;29;20509;-75
2022/04/19 07:34:29;;;;;;;6.03;4.80;;;11.90;98.50;;;;;;4954628;28;20034;-75
2022/04/19 07:36:56;;;;;;;7.88;4.30;;;12.10;98.30;;;;;;4947987;28;20103;-74
2022/04/19 07:39:21;;;;;;;7.45;4.85;;;12.30;98.10;;;;;;4962074;28;20027;-76
2022/04/19 07:41:47;;;;;;;8.10;5.20;;;12.30;97.60;;;;;;4955106;28;20481;-76
2022/04/19 07:44:15;;;;;;;6.43;4.75;;;12.30;97.90;;;;;;4937592;29;20030;-74
2022/04/19 07:46:42;;;;;;;13.27;6.00;;;12.50;97.50;;;;;;4949336;28;20030;-75
2022/04/19 07:49:08;;;;;;;10.57;4.65;;;12.60;97.20;;;;;;4939829;28;20117;-74
2022/04/19 07:51:35;;;;;;;5.30;4.15;;;12.70;97.00;;;;;;4954728;28;20026;-74
2022/04/19 07:54:01;;;;;;;9.57;5.15;;;12.80;96.50;;;;;;4961486;28;20433;-75
2022/04/19 07:56:26;;;;;;;5.80;4.93;;;12.60;96.70;;;;;;4955859;28;20050;-75
2022/04/19 07:58:52;;;;;;;7.32;4.90;;;12.80;96.50;;;;;;4958943;28;20043;-74
2022/04/19 08:01:18;;;;;;;11.02;4.85;;;13.00;96.60;;;;;;4933309;28;20027;-74
2022/04/19 08:03:44;;;;;;;5.57;4.38;;;13.00;96.00;;;;;;4961581;28;20050;-73
2022/04/19 08:06:10;;;;;;;9.30;4.78;;;13.00;96.40;;;;;;4958115;28;20030;-73
2022/04/19 08:08:37;;;;;;;7.43;4.80;;;13.40;96.00;;;;;;4935079;29;20030;-73
2022/04/19 08:11:03;;;;;;;8.05;5.00;;;13.50;95.10;;;;;;4938135;28;20023;-72
2022/04/19 08:13:29;;;;;;;10.15;4.97;;;13.50;94.60;;;;;;4956438;28;20023;-74
2022/04/19 08:15:55;;;;;;;16.90;4.72;;;13.50;94.30;;;;;;4957454;28;20098;-73
2022/04/19 08:18:21;;;;;;;9.07;5.13;;;13.50;94.70;;;;;;4936453;29;20038;-75
2022/04/19 08:20:47;;;;;;;8.60;4.95;;;13.50;94.80;;;;;;4948993;28;20023;-74
2022/04/19 08:23:13;;;;;;;4.57;4.10;;;13.60;94.30;;;;;;4957336;28;20078;-75
2022/04/19 08:25:39;;;;;;;23.58;5.25;;;13.70;94.30;;;;;;4947322;29;20023;-74
2022/04/19 08:28:06;;;;;;;10.93;5.03;;;14.00;93.70;;;;;;4931195;28;20016;-74
2022/04/19 08:30:32;;;;;;;6.97;4.45;;;14.00;93.30;;;;;;4953461;28;20023;-73
2022/04/19 08:32:58;;;;;;;5.45;4.80;;;14.20;93.10;;;;;;4952834;28;20696;-74
2022/04/19 08:35:24;;;;;;;7.65;4.40;;;14.40;93.10;;;;;;4955373;28;20031;-74
2022/04/19 08:37:50;;;;;;;9.38;4.80;;;14.50;93.10;;;;;;4952275;28;20035;-73
2022/04/19 08:40:16;;;;;;;10.02;5.05;;;14.70;92.80;;;;;;4955540;28;20034;-74
2022/04/19 08:42:43;;;;;;;11.15;5.10;;;14.90;92.90;;;;;;4956943;28;20090;-75
2022/04/19 08:45:11;;;;;;;7.63;5.28;;;14.80;92.50;;;;;;4937400;28;20027;-74
2022/04/19 08:47:39;;;;;;;8.02;4.10;;;14.90;92.00;;;;;;4956724;28;20435;-74
2022/04/19 08:50:11;;;;;;;7.07;4.75;;;15.10;91.00;;;;;;4958842;28;20031;-74
2022/04/19 08:52:38;;;;;;;5.32;4.40;;;15.10;90.60;;;;;;4951715;28;20070;-73
2022/04/19 08:57:50;;;;;;;6.55;4.72;;;15.30;89.40;;;;;;4944672;29;20075;-73
2022/04/19 09:00:17;;;;;;;6.25;4.20;;;15.30;88.70;;;;;;4953874;29;20031;-74
2022/04/19 09:02:42;;;;;;;8.10;4.40;;;15.30;87.90;;;;;;4951623;28;20157;-74
2022/04/19 09:05:21;;;;;;;8.68;3.85;;;15.50;88.00;;;;;;4958247;28;20105;-76
2022/04/19 09:07:48;;;;;;;10.25;5.15;;;15.50;85.30;;;;;;4956577;28;20019;-73
2022/04/19 09:10:16;;;;;;;8.07;4.88;;;15.50;86.40;;;;;;4953270;28;20107;-74
2022/04/19 09:13:04;;;;;;;6.20;4.57;;;15.70;86.50;;;;;;4938457;29;20512;-74
2022/04/19 09:15:37;;;;;;;5.82;4.15;;;15.70;86.00;;;;;;4948006;28;20030;-74
2022/04/19 09:18:13;;;;;;;4.75;3.83;;;15.70;84.70;;;;;;4949950;28;20027;-74
2022/04/19 09:20:39;;;;;;;6.38;4.15;;;15.90;84.30;;;;;;4951713;28;20081;-74
2022/04/19 09:23:07;;;;;;;8.88;3.72;;;16.20;84.10;;;;;;4952900;28;20035;-74
2022/04/19 09:25:33;;;;;;;6.05;3.17;;;16.40;82.80;;;;;;4951463;28;20027;-74
2022/04/19 09:28:00;;;;;;;8.80;3.17;;;16.30;81.30;;;;;;4948303;28;20483;-73
2022/04/19 09:30:28;;;;;;;4.55;3.50;;;16.50;79.50;;;;;;4952723;29;20039;-74
2022/04/19 09:32:59;;;;;;;5.13;3.15;;;16.30;79.20;;;;;;4952703;29;20031;-72
2022/04/19 09:35:45;;;;;;;6.07;4.00;;;16.50;79.90;;;;;;4956399;28;20029;-75
2022/04/19 09:38:12;;;;;;;5.90;4.10;;;16.70;79.20;;;;;;4951448;28;20034;-74
2022/04/19 09:40:38;;;;;;;7.40;3.95;;;16.80;78.70;;;;;;4934805;29;20035;-74
2022/04/19 09:43:10;;;;;;;4.03;2.97;;;16.80;79.40;;;;;;4955635;28;20177;-74
2022/04/19 09:45:58;;;;;;;4.88;3.47;;;16.90;77.50;;;;;;4951658;28;20035;-73
2022/04/19 09:48:35;;;;;;;6.57;3.92;;;17.00;77.50;;;;;;4948096;28;20023;-75
2022/04/19 09:51:10;;;;;;;7.90;3.80;;;16.20;77.50;;;;;;4953041;28;20031;-73
2022/04/19 09:53:43;;;;;;;4.05;2.92;;;16.40;78.70;;;;;;4936412;29;20205;-74
2022/04/19 09:56:16;;;;;;;4.03;3.35;;;16.80;77.20;;;;;;4935606;29;20397;-74
2022/04/19 09:58:44;;;;;;;6.72;3.30;;;17.00;76.00;;;;;;4942475;28;20496;-74
2022/04/19 10:09:25;;;;;;;4.53;3.53;;;17.30;70.90;;;;;;4940406;28;20474;-74
2022/04/19 10:11:51;;;;;;;4.80;3.03;;;17.10;71.10;;;;;;4951621;28;20385;-74
2022/04/19 10:14:21;;;;;;;5.03;2.40;;;17.00;71.50;;;;;;4934911;29;20445;-75
2022/04/19 10:16:48;;;;;;;5.72;2.80;;;17.10;71.20;;;;;;4947557;29;20106;-75
2022/04/19 10:19:15;;;;;;;4.00;2.70;;;17.50;70.40;;;;;;4934738;29;20461;-75
2022/04/19 10:21:42;;;;;;;4.65;2.80;;;17.50;67.30;;;;;;4955857;28;20031;-74
2022/04/19 10:24:10;;;;;;;4.35;2.72;;;17.20;66.70;;;;;;4951715;28;20054;-73
2022/04/19 10:26:45;;;;;;;3.45;2.55;;;17.30;66.40;;;;;;4951677;28;20027;-74
2022/04/19 10:29:34;;;;;;;2.90;2.38;;;16.90;66.00;;;;;;4946438;28;20034;-75
2022/04/19 10:32:07;;;;;;;3.45;2.40;;;16.80;66.20;;;;;;4942526;28;20114;-74
2022/04/19 10:34:37;;;;;;;4.20;2.83;;;17.20;65.80;;;;;;4950640;29;20027;-74
2022/04/19 10:37:23;;;;;;;3.05;2.35;;;17.40;66.00;;;;;;4947990;29;20031;-74
2022/04/19 10:39:49;;;;;;;5.10;3.10;;;17.60;64.30;;;;;;4958442;28;20031;-74
2022/04/19 10:42:32;;;;;;;5.53;3.00;;;17.60;63.80;;;;;;4937147;29;20034;-74
2022/04/19 10:45:13;;;;;;;5.72;3.33;;;17.60;64.10;;;;;;4951451;28;20055;-73
2022/04/19 10:47:53;;;;;;;3.95;2.85;;;17.50;64.30;;;;;;4956866;28;20446;-73
2022/04/19 10:50:39;;;;;;;4.10;3.10;;;17.30;64.80;;;;;;4955133;28;20122;-74
2022/04/19 10:53:12;;;;;;;4.22;3.15;;;17.60;64.90;;;;;;4963849;28;20529;-74
2022/04/19 10:55:56;;;;;;;4.32;3.75;;;17.60;64.50;;;;;;4951017;28;20532;-75
2022/04/19 10:58:43;;;;;;;3.25;2.88;;;17.80;63.00;;;;;;4951235;28;20047;-74
2022/04/19 11:01:35;;;;;;;4.97;3.15;;;17.10;63.60;;;;;;4957106;28;20061;-73
2022/04/19 11:04:00;;;;;;;3.25;2.95;;;16.80;64.90;;;;;;4957494;28;20039;-74
2022/04/19 11:06:37;;;;;;;3.78;3.08;;;17.10;64.50;;;;;;4952837;28;20027;-74
2022/04/19 11:09:23;;;;;;;4.32;3.42;;;17.20;63.30;;;;;;4937313;29;20065;-74
2022/04/19 11:11:53;;;;;;;3.53;2.80;;;17.20;63.20;;;;;;4951092;29;20023;-75
2022/04/19 11:14:23;;;;;;;3.45;2.92;;;17.10;63.60;;;;;;4938647;29;20469;-74
2022/04/19 11:17:13;;;;;;;4.50;3.47;;;17.30;63.70;;;;;;4932014;29;20167;-74
2022/04/19 11:19:38;;;;;;;4.05;3.65;;;17.40;63.80;;;;;;4955000;28;20054;-75
2022/04/19 11:22:04;;;;;;;4.10;3.45;;;17.50;63.30;;;;;;4949952;29;20430;-74
2022/04/19 11:24:58;;;;;;;7.30;3.10;;;17.70;62.60;;;;;;4954048;28;20031;-74
2022/04/19 11:27:53;;;;;;;3.53;3.22;;;17.60;61.30;;;;;;4950553;28;20500;-76
2022/04/19 11:30:23;;;;;;;4.22;3.08;;;17.40;61.60;;;;;;4950537;28;20434;-74
2022/04/19 11:32:53;;;;;;;3.97;3.10;;;17.20;62.10;;;;;;4957504;28;20429;-75
2022/04/19 11:35:20;;;;;;;4.30;3.33;;;17.00;61.90;;;;;;4957396;28;20027;-75
2022/04/19 11:37:46;;;;;;;5.53;3.00;;;17.10;61.30;;;;;;4938035;29;20110;-74
2022/04/19 11:48:48;;;;;;;4.03;3.03;;;17.10;62.30;;;;;;4953444;28;20409;-74
2022/04/19 11:51:15;;;;;;;4.75;3.33;;;17.20;62.10;;;;;;4940179;28;20027;-76
2022/04/19 11:53:41;;;;;;;5.07;3.80;;;17.50;60.70;;;;;;4955983;28;20023;-75
2022/04/19 11:56:07;;;;;;;3.63;3.13;;;17.70;59.70;;;;;;4954615;28;20023;-74
2022/04/19 11:58:34;;;;;;;5.35;3.90;;;17.90;61.10;;;;;;4938476;29;20023;-75
2022/04/19 12:01:05;;;;;;;4.13;3.33;;;17.60;60.40;;;;;;4937154;28;20035;-76
2022/04/19 12:03:36;;;;;;;3.55;3.17;;;17.40;60.10;;;;;;4958866;28;20498;-75
2022/04/19 12:06:07;;;;;;;;;;;17.50;59.90;;;;;;4930606;29;20066;-75
2022/04/19 12:08:41;;;;;;;4.70;3.83;;;17.40;60.50;;;;;;4957689;28;20381;-76
2022/04/19 12:11:09;;;;;;;4.28;3.08;;;17.20;60.50;;;;;;4958614;28;20557;-75
2022/04/19 12:13:35;;;;;;;4.60;3.88;;;17.00;60.20;;;;;;4934520;29;20024;-75
2022/04/19 12:16:03;;;;;;;5.03;3.67;;;17.10;61.20;;;;;;4960584;28;20027;-74
2022/04/19 12:18:37;;;;;;;4.50;3.33;;;17.30;60.50;;;;;;4954461;28;20027;-75
2022/04/19 12:21:05;;;;;;;5.47;3.85;;;17.70;60.70;;;;;;4932621;29;20082;-74
2022/04/19 12:23:31;;;;;;;4.63;3.65;;;17.70;59.90;;;;;;4938010;29;20486;-74
2022/04/19 12:26:00;;;;;;;4.72;3.42;;;17.90;59.50;;;;;;4961175;28;20049;-74
2022/04/19 12:28:45;;;;;;;3.95;3.50;;;17.80;60.70;;;;;;4950370;28;20278;-74
2022/04/19 12:31:37;;;;;;;5.28;3.85;;;17.90;59.20;;;;;;4951062;28;20023;-75
2022/04/19 12:34:04;;;;;;;4.40;3.47;;;18.00;58.80;;;;;;4949395;28;20031;-75
2022/04/19 12:36:50;;;;;;;6.95;6.25;;;18.00;59.40;;;;;;4952277;29;20011;-72
2022/04/19 12:39:21;;;;;;;4.63;3.58;;;18.10;59.40;;;;;;4928621;29;20082;-75
2022/04/19 12:41:49;;;;;;;5.03;3.70;;;18.10;58.50;;;;;;4948068;28;20498;-75
2022/04/19 12:44:19;;;;;;;5.80;3.15;;;18.00;58.80;;;;;;4950778;29;20450;-76
2022/04/19 12:46:49;;;;;;;3.53;3.17;;;18.00;59.00;;;;;;4946329;28;20051;-75
2022/04/19 12:49:29;;;;;;;3.53;3.22;;;17.40;58.40;;;;;;4937361;29;20035;-75
2022/04/19 12:52:06;;;;;;;4.95;3.92;;;18.00;58.70;;;;;;4955862;28;20034;-73
2022/04/19 12:54:37;;;;;;;5.88;3.83;;;17.50;58.70;;;;;;4933001;29;20087;-75
2022/04/19 12:57:04;;;;;;;5.15;4.00;;;17.70;58.90;;;;;;4951747;28;20082;-75
2022/04/19 12:59:30;;;;;;;5.03;3.70;;;17.90;58.00;;;;;;4935665;28;20074;-75
2022/04/19 13:01:56;;;;;;;4.82;3.95;;;17.90;58.60;;;;;;4957756;28;20030;-75
2022/04/19 13:04:22;;;;;;;4.88;4.03;;;17.80;59.00;;;;;;4928239;28;20019;-75
2022/04/19 13:12:24;;;;;;;4.55;3.53;;;17.70;60.00;;;;;;4954262;29;20078;-74
2022/04/19 13:14:52;;;;;;;4.63;3.78;;;18.20;58.80;;;;;;4936501;29;20104;-74
2022/04/19 13:17:19;;;;;;;4.13;3.70;;;18.20;58.40;;;;;;4953118;28;20059;-74
2022/04/19 13:19:47;;;;;;;4.50;3.90;;;17.70;59.40;;;;;;4957189;28;20034;-75
2022/04/19 13:22:14;;;;;;;5.75;4.43;;;17.90;59.60;;;;;;4957836;28;20039;-75
2022/04/19 13:24:41;;;;;;;5.38;4.28;;;17.70;59.70;;;;;;4958820;28;20115;-73
2022/04/19 13:27:08;;;;;;;3.95;3.55;;;17.40;59.60;;;;;;4940863;28;20031;-75
2022/04/19 13:29:34;;;;;;;5.18;3.67;;;17.60;60.50;;;;;;4951682;28;20599;-74
2022/04/19 13:32:01;;;;;;;3.90;3.20;;;17.70;59.90;;;;;;4955739;28;20555;-74
2022/04/19 13:34:26;;;;;;;6.00;3.33;;;18.10;59.80;;;;;;4940153;29;20031;-74
2022/04/19 13:36:52;;;;;;;4.18;2.97;;;18.20;59.20;;;;;;4951875;28;20038;-76
2022/04/19 13:39:18;;;;;;;3.72;3.38;;;18.20;59.70;;;;;;4942979;29;20031;-76